»·PEaware :: SWA585 KDEN-KSEA

SWA585 :: KDEN-KSEA

FLIGHT INFORMATION

Flight Status: Arrived
Operator:
Southwest Airlines
More flights by this operator :: More flights under this callsign
Pilot: Tim M. (868)
Aircraft: BOEING 737-700
(B737)
More flights by this aircraft type
Origin: KDEN Denver Intl
United States
Destination: KSEA Seattle-Tacoma Intl
United States
More flights between these airports :: More routes between these airports
Route: +DDRTH1 DDRTH CKW BPI DNJ PDT CHINS4
File this flight plan on PilotEdge
Remarks:
Altitude:
(Current/Filed)
38,000ft
Speed:
(Current/Filed)
453kts
Departed: 18-Jul-20 06:17 PM
Arrived: 18-Jul-20 08:40 PM
Distance/Time
Traveled:
888nm/2:23
Distance/Time
To Go:
Arrived

Flight Plot

Page will automatically refresh every two minutes.

Flight plan parsing failed; only flown route is shown


Map Options




Map Legend


Flown Route
Filed Route
Departure Airport
Arrival Airport
Navaid (VOR, NDB)
Fix

Horizontal Profiles

Position Reports

Time Latitude Longitude Heading Altitude Ground
Speed
18-Jul-20 17:35 39.863611 -104.675733 181 5439ft 0kts
18-Jul-20 17:36 39.863611 -104.675733 181 5439ft 0kts
18-Jul-20 17:37 39.863611 -104.675733 181 5439ft 0kts
18-Jul-20 17:38 39.863611 -104.675733 181 5439ft 0kts
18-Jul-20 17:39 39.863611 -104.675733 181 5439ft 0kts
18-Jul-20 17:40 39.863611 -104.675733 181 5439ft 0kts
18-Jul-20 17:41 39.863611 -104.675733 181 5439ft 0kts
18-Jul-20 17:42 39.863611 -104.675733 181 5439ft 0kts
18-Jul-20 17:43 39.863611 -104.675733 181 5439ft 0kts
18-Jul-20 17:44 39.863611 -104.675733 181 5439ft 0kts
18-Jul-20 17:45 39.863611 -104.675733 181 5439ft 0kts
18-Jul-20 17:45 39.863611 -104.675733 181 5439ft 0kts
18-Jul-20 17:47 39.863611 -104.675733 181 5439ft 0kts
18-Jul-20 17:48 39.863611 -104.675733 181 5439ft 0kts
18-Jul-20 17:48 39.863611 -104.675733 181 5439ft 0kts
18-Jul-20 17:49 39.863611 -104.675733 181 5439ft 0kts
18-Jul-20 17:51 39.863611 -104.675733 181 5439ft 0kts
18-Jul-20 17:52 39.863611 -104.675733 181 5439ft 0kts
18-Jul-20 17:52 39.863611 -104.675733 181 5439ft 0kts
18-Jul-20 17:53 39.863611 -104.675733 181 5439ft 0kts
18-Jul-20 17:55 39.863611 -104.675733 181 5439ft 0kts
18-Jul-20 17:55 39.863611 -104.675733 181 5439ft 0kts
18-Jul-20 17:56 39.863611 -104.675733 181 5439ft 0kts
18-Jul-20 17:57 39.863611 -104.675733 181 5439ft 0kts
18-Jul-20 17:58 39.863611 -104.675733 181 5439ft 0kts
18-Jul-20 17:59 39.863611 -104.675733 181 5439ft 0kts
18-Jul-20 18:00 39.863611 -104.675733 181 5439ft 0kts
18-Jul-20 18:01 39.863611 -104.675733 181 5439ft 0kts
18-Jul-20 18:02 39.863611 -104.675733 181 5439ft 0kts
18-Jul-20 18:03 39.864186 -104.675788 123 5439ft 2kts
18-Jul-20 18:04 39.864220 -104.676352 90 5439ft 0kts
18-Jul-20 18:05 39.864220 -104.676350 90 5439ft 0kts
18-Jul-20 18:06 39.864220 -104.676348 90 5439ft 0kts
18-Jul-20 18:07 39.864220 -104.676346 90 5439ft 0kts
18-Jul-20 18:08 39.864211 -104.675419 90 5439ft 9kts
18-Jul-20 18:09 39.864178 -104.672153 90 5439ft 8kts
18-Jul-20 18:10 39.864172 -104.669364 89 5439ft 8kts
18-Jul-20 18:11 39.864550 -104.665715 10 5439ft 11kts
18-Jul-20 18:12 39.865364 -104.662258 9 5439ft 10kts
18-Jul-20 18:13 39.869118 -104.662191 2 5439ft 17kts
18-Jul-20 18:14 39.873807 -104.662140 359 5439ft 15kts
18-Jul-20 18:15 39.877499 -104.661971 39 5439ft 12kts
18-Jul-20 18:16 39.877392 -104.633972 89 5629ft 160kts
18-Jul-20 18:17 39.885019 -104.564517 73 7150ft 238kts
18-Jul-20 18:18 39.904607 -104.467683 74 9577ft 294kts
18-Jul-20 18:19 39.951305 -104.388790 10 13114ft 300kts
18-Jul-20 18:20 40.037123 -104.383339 1 16448ft 314kts
18-Jul-20 18:21 40.114506 -104.433800 320 19450ft 327kts
18-Jul-20 18:22 40.189669 -104.506401 321 22306ft 343kts
18-Jul-20 18:23 40.272541 -104.586698 321 23250ft 401kts
18-Jul-20 18:24 40.365535 -104.677084 321 24638ft 424kts
18-Jul-20 18:25 40.461233 -104.770429 320 26269ft 434kts
18-Jul-20 18:26 40.559610 -104.865916 320 27746ft 443kts
18-Jul-20 18:27 40.659271 -104.963768 320 29062ft 451kts
18-Jul-20 18:28 40.759205 -105.066169 314 30255ft 456kts
18-Jul-20 18:29 40.839920 -105.192684 305 31881ft 447kts
18-Jul-20 18:30 40.916185 -105.321341 306 33534ft 441kts
18-Jul-20 18:31 40.991509 -105.448066 306 35134ft 436kts
18-Jul-20 18:32 41.066305 -105.573444 305 36516ft 431kts
18-Jul-20 18:33 41.139981 -105.698178 305 37746ft 427kts
18-Jul-20 18:34 41.213037 -105.822458 305 38298ft 427kts
18-Jul-20 18:35 41.286064 -105.946629 305 38564ft 426kts
18-Jul-20 18:36 41.358030 -106.070164 305 39562ft 422kts
18-Jul-20 18:37 41.429554 -106.193755 304 40294ft 421kts
18-Jul-20 18:38 41.478939 -106.333650 286 40286ft 416kts
18-Jul-20 18:39 41.512571 -106.481384 285 40292ft 416kts
18-Jul-20 18:40 41.545738 -106.629532 285 40294ft 417kts
18-Jul-20 18:41 41.579517 -106.778225 285 40295ft 419kts
18-Jul-20 18:42 41.612940 -106.927470 285 40290ft 419kts
18-Jul-20 18:43 41.646017 -107.076974 285 40280ft 420kts
18-Jul-20 18:44 41.679318 -107.226935 285 40273ft 420kts
18-Jul-20 18:45 41.711171 -107.373442 285 40272ft 422kts
18-Jul-20 18:46 41.743652 -107.524497 285 40271ft 422kts
18-Jul-20 18:47 41.785934 -107.670832 293 40270ft 423kts
18-Jul-20 18:48 41.834475 -107.814429 293 40257ft 422kts
18-Jul-20 18:49 41.882643 -107.958293 293 40253ft 423kts
18-Jul-20 18:50 41.931526 -108.102479 293 40248ft 423kts
18-Jul-20 18:51 41.979800 -108.246378 293 40247ft 423kts
18-Jul-20 18:52 42.027840 -108.390946 293 40244ft 422kts
18-Jul-20 18:53 42.075522 -108.535303 293 40235ft 421kts
18-Jul-20 18:54 42.122766 -108.679117 293 40229ft 420kts
18-Jul-20 18:55 42.169959 -108.823540 293 40250ft 420kts
18-Jul-20 18:56 42.216909 -108.967994 293 40260ft 420kts
18-Jul-20 18:57 42.263744 -109.112864 293 40268ft 420kts
18-Jul-20 18:58 42.310275 -109.257573 293 40282ft 420kts
18-Jul-20 18:59 42.356759 -109.402920 292 40296ft 421kts
18-Jul-20 19:00 42.403166 -109.548816 292 40313ft 422kts
18-Jul-20 19:01 42.449425 -109.695052 292 40330ft 423kts
18-Jul-20 19:02 42.495848 -109.841333 292 40352ft 422kts
18-Jul-20 19:03 42.541351 -109.987617 292 40352ft 422kts
18-Jul-20 19:04 42.588306 -110.134250 296 40350ft 423kts
18-Jul-20 19:05 42.644452 -110.274700 297 40349ft 422kts
18-Jul-20 19:06 42.699911 -110.415246 297 40342ft 422kts
18-Jul-20 19:07 42.755465 -110.556211 297 40321ft 421kts
18-Jul-20 19:08 42.810925 -110.696098 297 40300ft 421kts
18-Jul-20 19:09 42.865949 -110.836736 296 40288ft 420kts
18-Jul-20 19:10 42.920703 -110.977637 296 40281ft 420kts
18-Jul-20 19:11 42.975285 -111.118846 296 40270ft 420kts
18-Jul-20 19:12 43.029612 -111.260108 296 40260ft 420kts
18-Jul-20 19:13 43.083731 -111.401532 296 40248ft 419kts
18-Jul-20 19:14 43.137691 -111.543251 296 40231ft 419kts
18-Jul-20 19:15 43.191298 -111.684714 295 40209ft 420kts
18-Jul-20 19:16 43.244829 -111.826746 295 40183ft 418kts
18-Jul-20 19:17 43.297959 -111.968407 295 40154ft 418kts
18-Jul-20 19:18 43.351051 -112.110682 295 40145ft 418kts
18-Jul-20 19:19 43.403741 -112.252592 295 40143ft 417kts
18-Jul-20 19:20 43.456247 -112.394727 295 40145ft 417kts
18-Jul-20 19:21 43.508761 -112.537614 294 40149ft 418kts
18-Jul-20 19:22 43.561164 -112.680932 294 40139ft 418kts
18-Jul-20 19:23 43.613382 -112.824483 294 40139ft 419kts
18-Jul-20 19:24 43.665403 -112.968235 294 40148ft 420kts
18-Jul-20 19:25 43.717542 -113.113068 294 40153ft 420kts
18-Jul-20 19:26 43.769286 -113.257560 294 40155ft 420kts
18-Jul-20 19:27 43.821094 -113.402995 294 40159ft 420kts
18-Jul-20 19:29 43.872498 -113.548062 294 40165ft 420kts
18-Jul-20 19:30 43.923828 -113.693693 293 40165ft 419kts
18-Jul-20 19:31 43.974919 -113.839421 293 40164ft 419kts
18-Jul-20 19:32 44.025774 -113.985252 293 40157ft 419kts
18-Jul-20 19:33 44.076263 -114.130813 293 40155ft 419kts
18-Jul-20 19:34 44.126863 -114.277482 293 40174ft 419kts
18-Jul-20 19:35 44.176963 -114.423492 293 40206ft 418kts
18-Jul-20 19:36 44.227013 -114.570150 293 40229ft 417kts
18-Jul-20 19:37 44.276696 -114.716528 293 40254ft 417kts
18-Jul-20 19:38 44.326115 -114.862926 293 40271ft 417kts
18-Jul-20 19:39 44.375365 -115.009628 293 40267ft 417kts
18-Jul-20 19:40 44.424350 -115.156342 292 40255ft 417kts
18-Jul-20 19:41 44.473301 -115.303770 292 40241ft 417kts
18-Jul-20 19:42 44.521877 -115.450882 292 40227ft 417kts
18-Jul-20 19:42 44.562397 -115.574227 292 40223ft 417kts
18-Jul-20 19:44 44.618969 -115.747400 292 40216ft 417kts
18-Jul-20 19:45 44.667445 -115.895275 292 40215ft 417kts
18-Jul-20 19:45 44.707277 -116.019183 292 40216ft 417kts
18-Jul-20 19:46 44.755020 -116.168457 292 40218ft 416kts
18-Jul-20 19:48 44.814109 -116.339451 294 40210ft 416kts
18-Jul-20 19:48 44.857438 -116.461321 294 40202ft 416kts
18-Jul-20 19:49 44.908829 -116.607468 294 40197ft 416kts
18-Jul-20 19:50 44.960869 -116.753449 294 40187ft 416kts
18-Jul-20 19:51 45.012288 -116.899560 293 40190ft 415kts
18-Jul-20 19:52 45.063245 -117.045724 293 40186ft 415kts
18-Jul-20 19:53 45.114202 -117.192808 293 40170ft 415kts
18-Jul-20 19:55 45.173175 -117.364066 293 40152ft 414kts
18-Jul-20 19:55 45.215181 -117.486729 293 40154ft 414kts
18-Jul-20 19:56 45.265315 -117.633867 293 40156ft 413kts
18-Jul-20 19:57 45.315215 -117.781138 293 40164ft 413kts
18-Jul-20 19:58 45.364663 -117.927884 293 40165ft 412kts
18-Jul-20 19:59 45.414139 -118.075533 293 40173ft 413kts
18-Jul-20 20:00 45.463436 -118.223471 293 40197ft 412kts
18-Jul-20 20:01 45.512409 -118.371268 292 40223ft 412kts
18-Jul-20 20:02 45.561275 -118.519524 293 40222ft 412kts
18-Jul-20 20:03 45.610138 -118.667373 292 40179ft 412kts
18-Jul-20 20:04 45.658469 -118.816605 292 40120ft 413kts
18-Jul-20 20:05 45.712735 -118.961047 303 40099ft 417kts
18-Jul-20 20:06 45.786946 -119.089206 306 40064ft 419kts
18-Jul-20 20:07 45.862222 -119.217121 306 39066ft 417kts
18-Jul-20 20:08 45.936989 -119.344080 306 38070ft 419kts
18-Jul-20 20:09 46.012817 -119.472083 306 37069ft 419kts
18-Jul-20 20:10 46.087636 -119.600557 305 36070ft 419kts
18-Jul-20 20:11 46.162613 -119.730261 305 35070ft 421kts
18-Jul-20 20:12 46.237724 -119.860346 305 34073ft 424kts
18-Jul-20 20:13 46.313272 -119.992185 305 33071ft 425kts
18-Jul-20 20:14 46.388140 -120.122749 306 32070ft 418kts
18-Jul-20 20:15 46.461482 -120.251616 305 31069ft 411kts
18-Jul-20 20:16 46.533351 -120.379103 305 30067ft 404kts
18-Jul-20 20:17 46.601345 -120.507584 301 29067ft 398kts
18-Jul-20 20:18 46.663826 -120.639400 302 27701ft 390kts
18-Jul-20 20:19 46.724422 -120.767268 302 25328ft 376kts
18-Jul-20 20:20 46.782864 -120.891301 302 23011ft 365kts
18-Jul-20 20:21 46.839455 -121.011681 303 20763ft 355kts
18-Jul-20 20:22 46.894524 -121.129444 303 18574ft 345kts
18-Jul-20 20:23 46.948578 -121.243783 303 16319ft 338kts
18-Jul-20 20:24 47.000794 -121.356480 303 14145ft 329kts
18-Jul-20 20:25 47.051537 -121.466424 303 12353ft 319kts
18-Jul-20 20:26 47.099201 -121.569253 303 12156ft 286kts
18-Jul-20 20:27 47.137423 -121.665143 287 12035ft 289kts
18-Jul-20 20:28 47.157963 -121.777906 285 10487ft 285kts
18-Jul-20 20:29 47.175964 -121.881591 285 8878ft 280kts
18-Jul-20 20:30 47.194363 -121.989573 285 7379ft 262kts
18-Jul-20 20:31 47.210498 -122.089273 285 7086ft 226kts
18-Jul-20 20:32 47.223904 -122.174631 285 6310ft 220kts
18-Jul-20 20:33 47.238718 -122.263375 295 4961ft 210kts
18-Jul-20 20:34 47.283658 -122.303552 340 3934ft 191kts
18-Jul-20 20:35 47.333950 -122.313594 5 2572ft 162kts
18-Jul-20 20:36 47.373713 -122.309257 356 1572ft 132kts
18-Jul-20 20:37 47.409022 -122.312035 4 1059ft 125kts
18-Jul-20 20:38 47.444763 -122.311169 1 442ft 118kts
18-Jul-20 20:39 47.458172 -122.310304 29 441ft 12kts
18-Jul-20 20:40 47.460109 -122.307064 96 441ft 10kts
18-Jul-20 20:41 47.457789 -122.306206 180 441ft 9kts
18-Jul-20 20:42 47.453626 -122.306252 182 441ft 14kts
18-Jul-20 20:43 47.449307 -122.306291 180 441ft 15kts
18-Jul-20 20:44 47.444845 -122.306328 179 441ft 16kts
18-Jul-20 20:45 47.440486 -122.306381 180 441ft 12kts
18-Jul-20 20:46 47.440300 -122.303301 80 441ft 9kts
18-Jul-20 20:47 47.441229 -122.303081 288 441ft 3kts
18-Jul-20 20:48 47.441250 -122.303174 289 441ft 0kts
18-Jul-20 20:49 47.441250 -122.303174 289 441ft 0kts

Navigation Log

Ident Type
Flight plan parsing failed, navigation log unavailable